Accueil
METAR-TAF:

METAR-TAF

Aéroports :

Aurigny,

Aéroport d'Aurigny

latitude: 49-43N, longitude: 002-12W, altitude: 71 m

Observation

Le bulletin a été fait il y a 10 heures et 51 minutes, à 18:20 UTC
Vent 6 kt de ouest/sud-ouest
Température 7°C
Pression 1023 hPa
Visibilité 10 km ou plus
Quelques nuages à une hauteur de 2000 ft

METAR: EGJA 171820Z 25006KT 9999 FEW020 07/// Q1023

Heure: 05:11 (05:11 UTC)

Prévision

Le bulletin a été fait il y a 15 heures et 10 minutes, à 14:01 UTC
Prévision valable du 17 à 15 UTC au 17 à 19 UTC
Vent 8 kt de ouest/sud-ouest
Visibilité 10 km ou plus
Quelques nuages à une hauteur de 1800 ft

TAF: EGJA 171401Z 1715/1719 25008KT 9999 FEW018

Observations et prévisions météorologiques de plus de 4000 aéroports (messages METAR et TAF).

Les stations disponibles sont représentées par des disques jaunes et rouges sur la carte.

Passer la souris dessus pour voir le nom de la station.

Cliquer dessus pour voir les observations et prévisions météorologiques.

Pour changer de carte: cliquez sur les boutons verts avec une croix noire pour zoomer, sur le bouton vert avec un tiret pour effectuer un zoom arrière, ou sur les flèches vertes pour les cartes adjacentes.


METAR-TAF: